createdAt,value
2017-11-11T00:00:52.403Z,2.30
2017-11-11T00:03:20.233Z,2.78
2017-11-11T00:05:48.074Z,2.75
2017-11-11T00:08:15.914Z,2.25
2017-11-11T00:10:43.761Z,2.42
2017-11-11T00:13:11.599Z,2.03
2017-11-11T00:15:39.502Z,2.58
2017-11-11T00:18:07.367Z,1.85
2017-11-11T00:20:35.199Z,2.22
2017-11-11T00:23:03.096Z,1.75
2017-11-11T00:25:30.930Z,2.20
2017-11-11T00:27:58.750Z,1.20
2017-11-11T00:30:26.619Z,2.05
2017-11-11T00:32:54.423Z,2.10
2017-11-11T00:35:22.269Z,1.85
2017-11-11T00:37:50.118Z,2.72
2017-11-11T00:40:17.962Z,2.42
2017-11-11T00:42:45.825Z,2.12
2017-11-11T00:45:13.654Z,1.73
2017-11-11T00:47:41.493Z,1.58
2017-11-11T00:50:09.289Z,2.15
2017-11-11T00:52:37.123Z,1.67
2017-11-11T00:55:04.975Z,1.80
2017-11-11T00:57:32.821Z,2.25
2017-11-11T01:00:00.649Z,2.67
2017-11-11T01:02:28.478Z,2.60
2017-11-11T01:04:56.317Z,1.77
2017-11-11T01:07:24.141Z,2.15
2017-11-11T01:09:51.962Z,1.25
2017-11-11T01:12:19.834Z,2.22
2017-11-11T01:14:47.682Z,3.45
2017-11-11T01:17:15.481Z,1.65
2017-11-11T01:19:43.289Z,1.42
2017-11-11T01:22:11.118Z,2.95
2017-11-11T01:24:38.925Z,1.90
2017-11-11T01:27:06.738Z,2.33
2017-11-11T01:29:34.558Z,3.10
2017-11-11T01:32:02.370Z,2.20
2017-11-11T01:34:30.190Z,2.67
2017-11-11T01:36:57.994Z,2.12
2017-11-11T01:39:25.855Z,1.60
2017-11-11T01:41:53.704Z,1.10
2017-11-11T01:44:21.533Z,2.47
2017-11-11T01:46:49.358Z,2.22
2017-11-11T01:49:17.209Z,1.62
2017-11-11T01:51:45.033Z,2.25
2017-11-11T01:54:12.887Z,2.42
2017-11-11T01:56:40.718Z,1.70
2017-11-11T01:59:08.586Z,2.30
2017-11-11T02:01:36.450Z,1.42
2017-11-11T02:04:04.278Z,1.62
2017-11-11T02:06:32.118Z,3.87
2017-11-11T02:08:59.962Z,1.77
2017-11-11T02:11:27.802Z,1.80
2017-11-11T02:13:55.638Z,1.60
2017-11-11T02:16:23.482Z,2.10
2017-11-11T02:18:51.331Z,1.95
2017-11-11T02:21:19.176Z,1.52
2017-11-11T02:23:47.030Z,1.02
2017-11-11T02:26:14.871Z,2.03
2017-11-11T02:28:42.701Z,1.92
2017-11-11T02:31:10.533Z,1.25
2017-11-11T02:33:38.356Z,2.45
2017-11-11T02:36:06.194Z,1.55
2017-11-11T02:38:34.072Z,1.80
2017-11-11T02:41:01.923Z,2.45
2017-11-11T02:43:29.766Z,1.55
2017-11-11T02:45:57.658Z,2.58
2017-11-11T02:48:25.501Z,1.80
2017-11-11T02:50:53.322Z,1.58
2017-11-11T02:53:21.161Z,1.87
2017-11-11T02:55:55.783Z,1.62
2017-11-11T02:58:23.646Z,2.00
2017-11-11T03:00:51.492Z,1.30
2017-11-11T03:03:19.333Z,1.35
2017-11-11T03:05:47.185Z,1.33
2017-11-11T03:08:15.018Z,1.58
2017-11-11T03:10:42.854Z,1.23
2017-11-11T03:13:10.682Z,1.23
2017-11-11T03:15:38.514Z,1.80
2017-11-11T03:18:06.356Z,1.80
2017-11-11T03:20:34.204Z,2.30
2017-11-11T03:23:02.046Z,1.70
2017-11-11T03:25:29.898Z,1.87
2017-11-11T03:27:57.789Z,1.40
2017-11-11T03:30:25.619Z,1.70
2017-11-11T03:32:53.438Z,1.30
2017-11-11T03:35:21.265Z,1.40
2017-11-11T03:37:49.102Z,1.58
2017-11-11T03:40:16.951Z,1.40
2017-11-11T03:42:44.804Z,3.05
2017-11-11T03:45:12.645Z,1.45
2017-11-11T03:47:40.501Z,1.33
2017-11-11T03:50:08.330Z,1.85
2017-11-11T03:52:36.156Z,1.37
2017-11-11T03:55:03.992Z,2.50
2017-11-11T03:57:31.814Z,2.97
2017-11-11T04:00:00.411Z,2.20
2017-11-11T04:02:28.224Z,2.00
2017-11-11T04:04:56.049Z,2.33
2017-11-11T04:07:23.887Z,2.33
2017-11-11T04:09:51.715Z,1.65
2017-11-11T04:12:19.577Z,2.67
2017-11-11T04:14:47.404Z,1.87
2017-11-11T04:17:15.256Z,1.37
2017-11-11T04:19:43.117Z,1.55
2017-11-11T04:22:10.974Z,1.33
2017-11-11T04:24:38.827Z,1.77
2017-11-11T04:27:06.669Z,2.12
2017-11-11T04:29:34.499Z,1.92
2017-11-11T04:32:02.318Z,1.85
2017-11-11T04:34:30.128Z,1.62
2017-11-11T04:36:57.961Z,1.60
2017-11-11T04:39:25.777Z,2.60
2017-11-11T04:41:53.627Z,3.58
2017-11-11T04:44:21.453Z,1.70
2017-11-11T04:46:49.298Z,2.40
2017-11-11T04:49:17.146Z,2.47
2017-11-11T04:51:44.990Z,2.12
2017-11-11T04:54:12.817Z,1.80
2017-11-11T04:56:40.623Z,2.30
2017-11-11T04:59:08.445Z,2.55
2017-11-11T05:01:36.265Z,3.12
2017-11-11T05:04:04.094Z,2.60
2017-11-11T05:06:31.911Z,4.50
2017-11-11T05:08:59.755Z,2.90
2017-11-11T05:11:27.593Z,3.83
2017-11-11T05:13:55.437Z,2.55
2017-11-11T05:16:23.255Z,3.15
2017-11-11T05:18:51.077Z,3.15
2017-11-11T05:21:18.888Z,2.90
2017-11-11T05:23:46.726Z,3.65
2017-11-11T05:26:14.558Z,2.97
2017-11-11T05:28:42.371Z,4.20
2017-11-11T05:31:10.222Z,5.00
2017-11-11T05:33:38.080Z,4.62
2017-11-11T05:36:05.942Z,2.80
2017-11-11T05:38:33.760Z,4.32
2017-11-11T05:41:01.603Z,3.90
2017-11-11T05:43:29.446Z,4.43
2017-11-11T05:45:57.282Z,3.47
2017-11-11T05:48:25.119Z,2.83
2017-11-11T05:50:52.946Z,4.40
2017-11-11T05:53:20.784Z,4.35
2017-11-11T05:55:48.607Z,3.58
2017-11-11T05:58:16.427Z,4.60
2017-11-11T06:00:44.258Z,3.37
2017-11-11T06:03:12.084Z,3.10
2017-11-11T06:05:39.921Z,3.33
2017-11-11T06:08:07.755Z,4.07
2017-11-11T06:10:35.562Z,3.22
2017-11-11T06:13:03.387Z,3.03
2017-11-11T06:15:31.191Z,3.78
2017-11-11T06:17:59.020Z,2.97
2017-11-11T06:20:26.813Z,3.10
2017-11-11T06:22:54.635Z,2.83
2017-11-11T06:25:22.464Z,2.20
2017-11-11T06:27:50.295Z,2.45
2017-11-11T06:30:18.117Z,1.85
2017-11-11T06:32:45.974Z,3.50
2017-11-11T06:35:13.791Z,1.55
2017-11-11T06:37:41.613Z,1.80
2017-11-11T06:40:09.422Z,1.90
2017-11-11T06:42:37.241Z,1.40
2017-11-11T06:45:05.070Z,2.15
2017-11-11T06:47:33.864Z,2.00
2017-11-11T06:50:01.716Z,1.75
2017-11-11T06:52:29.574Z,2.45
2017-11-11T06:54:57.444Z,1.90
2017-11-11T06:57:25.267Z,1.90
2017-11-11T06:59:53.094Z,2.70
2017-11-11T07:02:20.923Z,3.72
2017-11-11T07:04:48.798Z,3.42
2017-11-11T07:07:16.634Z,3.28
2017-11-11T07:09:44.526Z,3.25
2017-11-11T07:12:12.340Z,2.12
2017-11-11T07:14:40.179Z,3.70
2017-11-11T07:17:08.034Z,3.03
2017-11-11T07:19:35.888Z,3.12
2017-11-11T07:22:03.759Z,4.28
2017-11-11T07:24:31.606Z,2.92
2017-11-11T07:26:59.438Z,3.10
2017-11-11T07:29:27.280Z,4.20
2017-11-11T07:31:55.110Z,2.30
2017-11-11T07:34:23.015Z,3.28
2017-11-11T07:36:50.838Z,2.92
2017-11-11T07:39:18.725Z,2.45
2017-11-11T07:41:46.592Z,2.90
2017-11-11T07:44:14.425Z,1.90
2017-11-11T07:46:42.282Z,1.73
2017-11-11T07:49:10.142Z,1.75
2017-11-11T07:51:38.051Z,2.80
2017-11-11T07:54:05.902Z,3.28
2017-11-11T07:56:33.729Z,2.65
2017-11-11T07:59:01.558Z,2.40
2017-11-11T08:01:29.386Z,3.12
2017-11-11T08:03:57.283Z,2.28
2017-11-11T08:06:25.113Z,2.80
2017-11-11T08:08:52.970Z,2.20
2017-11-11T08:11:20.802Z,3.20
2017-11-11T08:13:48.624Z,2.50
2017-11-11T08:16:16.515Z,3.42
2017-11-11T08:18:44.384Z,3.15
2017-11-11T08:21:12.225Z,2.33
2017-11-11T08:23:40.086Z,1.67
2017-11-11T08:26:07.953Z,3.33
2017-11-11T08:28:35.797Z,2.92
2017-11-11T08:31:03.664Z,2.12
2017-11-11T08:33:31.533Z,2.40
2017-11-11T08:35:59.364Z,2.17
2017-11-11T08:38:27.218Z,3.20
2017-11-11T08:40:55.068Z,3.20
2017-11-11T08:43:22.910Z,2.30
2017-11-11T08:45:50.729Z,2.95
2017-11-11T08:48:18.567Z,2.58
2017-11-11T08:50:46.434Z,3.75
2017-11-11T08:53:14.272Z,3.75
2017-11-11T08:55:42.144Z,1.95
2017-11-11T08:58:09.981Z,2.15
2017-11-11T09:00:37.825Z,2.53
2017-11-11T09:03:05.666Z,3.50
2017-11-11T09:05:33.527Z,1.90
2017-11-11T09:08:01.366Z,3.08
2017-11-11T09:10:29.191Z,2.50
2017-11-11T09:12:57.022Z,2.55
2017-11-11T09:15:24.876Z,2.50
2017-11-11T09:17:52.711Z,2.60
2017-11-11T09:20:20.587Z,2.72
2017-11-11T09:22:48.470Z,3.10
2017-11-11T09:25:16.349Z,3.03
2017-11-11T09:27:44.253Z,2.20
2017-11-11T09:30:12.145Z,4.68
2017-11-11T09:32:40.018Z,3.70
2017-11-11T09:35:07.889Z,3.55
2017-11-11T09:37:35.757Z,3.65
2017-11-11T09:40:03.625Z,3.62
2017-11-11T09:42:31.510Z,2.50
2017-11-11T09:44:59.381Z,2.17
2017-11-11T09:47:27.270Z,4.15
2017-11-11T09:49:55.118Z,3.20
2017-11-11T09:52:22.992Z,4.40
2017-11-11T09:54:50.874Z,5.10
2017-11-11T09:57:18.723Z,3.00
2017-11-11T09:59:46.618Z,3.53
2017-11-11T10:02:14.515Z,2.45
2017-11-11T10:04:42.433Z,3.00
2017-11-11T10:07:10.290Z,2.67
2017-11-11T10:09:38.161Z,2.78
2017-11-11T10:12:06.026Z,2.95
2017-11-11T10:14:33.891Z,3.37
2017-11-11T10:17:01.751Z,3.22
2017-11-11T10:19:29.642Z,3.20
2017-11-11T10:21:57.531Z,1.58
2017-11-11T10:24:25.467Z,3.95
2017-11-11T10:26:53.377Z,2.55
2017-11-11T10:29:21.262Z,2.75
2017-11-11T10:31:49.122Z,2.90
2017-11-11T10:34:17.012Z,3.70
2017-11-11T10:37:03.489Z,2.57
2017-11-11T10:39:31.371Z,2.28
2017-11-11T10:41:59.271Z,2.35
2017-11-11T10:47:34.436Z,3.70
2017-11-11T10:50:02.459Z,3.22
2017-11-11T10:52:30.470Z,2.00
2017-11-11T10:54:59.543Z,1.95
2017-11-11T10:57:28.822Z,3.30
2017-11-11T10:59:57.525Z,3.05
2017-11-11T11:02:27.026Z,2.92
2017-11-11T11:04:59.730Z,4.03
2017-11-11T11:07:27.949Z,3.45
2017-11-11T11:10:02.203Z,3.43
2017-11-11T11:12:32.986Z,3.57
2017-11-11T11:15:04.640Z,4.10
2017-11-11T11:17:32.713Z,3.40
2017-11-11T11:20:00.620Z,4.70
2017-11-11T11:22:28.684Z,3.43
2017-11-11T11:24:56.584Z,3.10
2017-11-11T11:27:24.479Z,3.13
2017-11-11T11:29:52.318Z,3.50
2017-11-11T11:32:20.277Z,3.60
2017-11-11T11:34:49.178Z,3.37
2017-11-11T11:37:17.146Z,4.43
2017-11-11T11:39:45.014Z,3.20
2017-11-11T11:42:12.876Z,2.27
2017-11-11T11:44:40.791Z,3.13
2017-11-11T11:47:08.649Z,2.40
2017-11-11T11:49:36.522Z,2.90
2017-11-11T11:52:04.485Z,2.60
2017-11-11T11:54:32.345Z,3.13
2017-11-11T11:57:00.314Z,3.87
2017-11-11T11:59:29.172Z,3.40
2017-11-11T12:01:57.032Z,3.60
2017-11-11T12:04:24.926Z,2.10
2017-11-11T12:06:52.817Z,3.00
2017-11-11T12:09:20.717Z,3.10
2017-11-11T12:11:48.702Z,2.63
2017-11-11T12:14:16.594Z,1.50
2017-11-11T12:16:44.431Z,2.90
2017-11-11T12:19:12.307Z,3.57
2017-11-11T12:21:40.179Z,3.60
2017-11-11T12:24:08.077Z,2.57
2017-11-11T12:26:35.941Z,1.90
2017-11-11T12:29:03.820Z,3.43
2017-11-11T12:31:31.717Z,2.53
2017-11-11T12:33:59.539Z,2.30
2017-11-11T12:36:27.378Z,2.20
2017-11-11T12:38:55.249Z,2.80
2017-11-11T12:41:23.086Z,2.57
2017-11-11T12:43:50.918Z,2.50
2017-11-11T12:46:18.790Z,3.47
2017-11-11T12:48:46.656Z,2.90
2017-11-11T12:51:14.492Z,2.57
2017-11-11T12:53:42.353Z,2.40
2017-11-11T12:56:10.256Z,3.00
2017-11-11T12:58:38.094Z,4.00
2017-11-11T13:01:05.933Z,3.77
2017-11-11T13:03:33.802Z,2.90
2017-11-11T13:06:01.702Z,3.43
2017-11-11T13:08:29.578Z,3.20
2017-11-11T13:10:58.299Z,5.20
2017-11-11T13:13:26.122Z,2.10
2017-11-11T13:15:53.977Z,2.30
2017-11-11T13:18:21.876Z,3.10
2017-11-11T13:20:49.715Z,3.00
2017-11-11T13:23:17.577Z,3.10
2017-11-11T13:25:45.525Z,4.10
2017-11-11T13:28:13.389Z,5.60
2017-11-11T13:30:41.238Z,3.90
2017-11-11T13:33:09.097Z,3.53
2017-11-11T13:35:36.918Z,3.37
2017-11-11T13:38:04.749Z,2.53
2017-11-11T13:40:32.590Z,2.73
2017-11-11T13:43:00.452Z,2.50
2017-11-11T13:45:28.281Z,2.57
2017-11-11T13:47:56.150Z,3.33
2017-11-11T13:50:23.976Z,2.97
2017-11-11T13:52:51.822Z,1.30
2017-11-11T13:55:19.645Z,1.70
2017-11-11T13:57:48.352Z,2.20
2017-11-11T14:00:16.364Z,1.75
2017-11-11T14:02:46.472Z,1.90
2017-11-11T14:05:14.341Z,1.60
2017-11-11T14:13:35.108Z,1.80
2017-11-11T14:18:40.975Z,1.97
2017-11-11T14:21:13.543Z,1.57
2017-11-11T14:26:50.201Z,2.10
2017-11-11T14:29:18.468Z,2.55
2017-11-11T14:31:46.820Z,1.83
2017-11-11T14:34:32.117Z,2.30
2017-11-11T14:37:00.602Z,2.30
2017-11-11T14:42:34.794Z,3.33
2017-11-11T14:47:57.345Z,3.08
2017-11-11T14:53:40.260Z,3.97
2017-11-11T14:59:07.105Z,3.67
2017-11-11T15:01:35.054Z,3.37
2017-11-11T15:04:03.119Z,5.40
2017-11-11T15:06:31.005Z,4.25
2017-11-11T15:08:58.893Z,5.90
2017-11-11T15:11:26.804Z,4.62
2017-11-11T15:13:54.709Z,3.87
2017-11-11T15:16:22.574Z,3.70
2017-11-11T15:18:51.464Z,4.68
2017-11-11T15:21:19.366Z,4.50
2017-11-11T15:23:47.261Z,3.37
2017-11-11T15:26:15.182Z,4.00
2017-11-11T15:28:43.108Z,3.60
2017-11-11T15:31:11.056Z,3.47
2017-11-11T15:33:38.930Z,2.72
2017-11-11T15:36:06.825Z,3.75
2017-11-11T15:38:34.693Z,4.18
2017-11-11T15:41:05.851Z,4.90
2017-11-11T15:43:37.596Z,4.43
2017-11-11T15:49:04.081Z,3.80
2017-11-11T15:51:32.354Z,4.70
2017-11-11T15:59:54.843Z,2.33
2017-11-11T16:02:22.954Z,2.30
2017-11-11T16:10:41.164Z,2.37
2017-11-11T16:13:33.656Z,2.30
2017-11-11T16:16:01.615Z,2.00
2017-11-11T16:18:29.519Z,1.77
2017-11-11T16:24:04.210Z,2.10
2017-11-11T16:29:34.614Z,2.30
2017-11-11T16:32:02.510Z,2.72
2017-11-11T16:34:30.379Z,3.20
2017-11-11T16:37:01.227Z,2.67
2017-11-11T16:45:19.232Z,3.87
2017-11-11T16:47:47.134Z,4.70
2017-11-11T16:50:15.390Z,5.75
2017-11-11T16:52:43.280Z,6.75
2017-11-11T16:55:11.146Z,4.93
2017-11-11T16:57:51.373Z,2.60
2017-11-11T17:00:19.232Z,2.58
2017-11-11T17:02:47.141Z,2.83
2017-11-11T17:05:16.082Z,3.42
2017-11-11T17:07:43.912Z,2.55
2017-11-11T17:10:13.063Z,4.57
2017-11-11T17:12:41.158Z,3.65
2017-11-11T17:15:12.709Z,5.20
2017-11-11T17:17:40.751Z,5.20
2017-11-11T17:22:43.968Z,3.85
2017-11-11T17:25:11.965Z,4.87
2017-11-11T17:27:40.194Z,3.60
2017-11-11T17:30:08.130Z,2.28
2017-11-11T17:32:35.998Z,3.05
2017-11-11T17:35:03.891Z,2.83
2017-11-11T17:37:31.779Z,3.42
2017-11-11T17:40:00.041Z,2.95
2017-11-11T17:42:28.329Z,3.75
2017-11-11T17:44:56.660Z,2.70
2017-11-11T17:47:24.666Z,2.30
2017-11-11T17:49:52.518Z,1.70
2017-11-11T17:52:20.387Z,2.35
2017-11-11T17:57:35.997Z,2.72
2017-11-11T18:00:03.887Z,2.75
2017-11-11T18:02:31.736Z,2.42
2017-11-11T18:05:06.155Z,2.60
2017-11-11T18:07:34.010Z,3.67
2017-11-11T18:10:01.853Z,3.95
2017-11-11T18:12:29.836Z,4.35
2017-11-11T18:14:58.201Z,5.72
2017-11-11T18:17:26.074Z,5.37
2017-11-11T18:19:53.889Z,3.15
2017-11-11T18:22:21.736Z,4.50
2017-11-11T18:24:49.629Z,4.50
2017-11-11T18:27:17.469Z,2.92
2017-11-11T18:29:45.314Z,3.33
2017-11-11T18:32:13.182Z,1.73
2017-11-11T18:34:41.034Z,2.10
2017-11-11T18:37:08.871Z,2.05
2017-11-11T18:39:36.734Z,3.03
2017-11-11T18:42:04.601Z,2.92
2017-11-11T18:44:32.483Z,4.60
2017-11-11T18:47:00.335Z,2.53
2017-11-11T18:49:28.213Z,3.80
2017-11-11T18:51:56.061Z,2.25
2017-11-11T18:54:30.803Z,3.37
2017-11-11T18:56:58.666Z,3.37
2017-11-11T18:59:26.609Z,3.95
2017-11-11T19:01:54.449Z,4.37
2017-11-11T19:04:22.310Z,4.05
2017-11-11T19:06:50.178Z,3.67
2017-11-11T19:09:18.077Z,4.37
2017-11-11T19:11:45.970Z,3.30
2017-11-11T19:14:13.854Z,3.55
2017-11-11T19:16:41.746Z,4.25
2017-11-11T19:19:09.599Z,4.03
2017-11-11T19:21:37.559Z,2.90
2017-11-11T19:24:05.406Z,3.80
2017-11-11T19:26:33.322Z,4.15
2017-11-11T19:29:01.154Z,5.05
2017-11-11T19:31:29.016Z,4.37
2017-11-11T19:33:56.827Z,3.55
2017-11-11T19:36:24.666Z,4.03
2017-11-11T19:38:52.533Z,4.10
2017-11-11T19:41:20.405Z,5.20
2017-11-11T19:43:48.250Z,4.30
2017-11-11T19:46:16.088Z,4.05
2017-11-11T19:48:43.921Z,4.32
2017-11-11T19:51:11.744Z,5.00
2017-11-11T19:53:39.578Z,4.32
2017-11-11T19:56:07.425Z,5.32
2017-11-11T19:58:35.310Z,4.75
2017-11-11T20:01:03.136Z,4.45
2017-11-11T20:03:31.007Z,3.75
2017-11-11T20:05:58.859Z,3.67
2017-11-11T20:08:26.719Z,2.53
2017-11-11T20:10:54.543Z,2.80
2017-11-11T20:13:22.404Z,3.62
2017-11-11T20:15:50.240Z,2.30
2017-11-11T20:18:18.057Z,3.40
2017-11-11T20:20:45.897Z,3.45
2017-11-11T20:23:20.455Z,4.12
2017-11-11T20:25:54.939Z,2.65
2017-11-11T20:28:22.787Z,2.33
2017-11-11T20:30:50.606Z,3.78
2017-11-11T20:33:18.459Z,3.80
2017-11-11T20:35:46.311Z,2.87
2017-11-11T20:38:14.132Z,3.55
2017-11-11T20:40:41.995Z,4.25
2017-11-11T20:43:09.821Z,2.62
2017-11-11T20:45:37.638Z,4.12
2017-11-11T20:48:05.523Z,3.40
2017-11-11T20:50:33.364Z,2.40
2017-11-11T20:53:01.210Z,3.42
2017-11-11T20:55:29.061Z,4.00
2017-11-11T20:57:56.890Z,4.55
2017-11-11T21:00:24.743Z,3.83
2017-11-11T21:02:52.617Z,4.30
2017-11-11T21:05:20.483Z,3.28
2017-11-11T21:07:48.348Z,4.30
2017-11-11T21:10:16.243Z,5.25
2017-11-11T21:12:44.070Z,4.97
2017-11-11T21:15:11.904Z,4.35
2017-11-11T21:17:39.737Z,3.72
2017-11-11T21:20:07.578Z,2.75
2017-11-11T21:22:35.409Z,4.20
2017-11-11T21:25:03.287Z,4.00
2017-11-11T21:27:31.140Z,4.32
2017-11-11T21:29:58.933Z,4.22
2017-11-11T21:32:26.745Z,4.80
2017-11-11T21:35:00.535Z,4.80
2017-11-11T21:37:28.367Z,2.92
2017-11-11T21:39:56.215Z,2.05
2017-11-11T21:42:24.066Z,2.08
2017-11-11T21:44:51.880Z,2.37
2017-11-11T21:47:19.749Z,4.93
2017-11-11T21:49:47.615Z,4.80
2017-11-11T21:52:15.458Z,4.18
2017-11-11T21:54:43.287Z,4.93
2017-11-11T21:57:11.154Z,5.28
2017-11-11T21:59:38.989Z,4.97
2017-11-11T22:02:06.801Z,4.28
2017-11-11T22:04:34.633Z,4.18
2017-11-11T22:07:02.457Z,4.20
2017-11-11T22:09:30.299Z,4.72
2017-11-11T22:11:58.161Z,4.70
2017-11-11T22:14:26.026Z,4.07
2017-11-11T22:16:53.850Z,4.43
2017-11-11T22:19:21.722Z,4.95
2017-11-11T22:21:49.582Z,4.53
2017-11-11T22:24:17.446Z,5.10
2017-11-11T22:26:45.295Z,5.50
2017-11-11T22:29:13.123Z,5.57
2017-11-11T22:31:40.949Z,4.40
2017-11-11T22:34:08.793Z,3.72
2017-11-11T22:36:36.601Z,3.62
2017-11-11T22:39:04.421Z,3.35
2017-11-11T22:41:32.253Z,3.30
2017-11-11T22:44:00.117Z,4.05
2017-11-11T22:46:27.931Z,4.70
2017-11-11T22:48:55.744Z,4.15
2017-11-11T22:51:23.553Z,4.10
2017-11-11T22:53:51.392Z,3.65
2017-11-11T22:56:19.258Z,3.37
2017-11-11T22:58:47.082Z,2.45
2017-11-11T23:01:14.912Z,2.53
2017-11-11T23:03:42.753Z,3.08
2017-11-11T23:06:10.582Z,3.70
2017-11-11T23:08:38.422Z,3.28
2017-11-11T23:11:06.235Z,3.25
2017-11-11T23:13:34.082Z,2.35
2017-11-11T23:16:01.950Z,3.15
2017-11-11T23:18:29.765Z,3.17
2017-11-11T23:20:57.656Z,3.20
2017-11-11T23:23:25.489Z,3.05
2017-11-11T23:25:53.341Z,4.82
2017-11-11T23:28:21.174Z,3.35
2017-11-11T23:30:49.002Z,3.58
2017-11-11T23:33:16.841Z,4.47
2017-11-11T23:35:44.674Z,3.60
2017-11-11T23:38:12.505Z,3.40
2017-11-11T23:40:40.337Z,3.58
2017-11-11T23:43:08.191Z,3.10
2017-11-11T23:45:36.035Z,3.37
2017-11-11T23:48:03.962Z,3.00
2017-11-11T23:50:31.765Z,2.83
2017-11-11T23:52:59.597Z,3.10
2017-11-11T23:55:27.418Z,2.95
2017-11-11T23:57:55.225Z,3.62
